Time;durP1;ratioP1;P1;durP2;ratioP2;P2;SDS_P1;SDS_P2;PMS_P1;PMS_P2;Temp;Humidity;BMP_temperature;BMP_pressure;BME280_temperature;BME280_humidity;BME280_pressure;Samples;Min_cycle;Max_cycle;Signal;HPM_P1;HPM_P2
2023/06/13 00:00:12;;;;;;;5.82;4.15;;;19.60;78.00;;;;;;7834024;28;20220;-89
2023/06/13 00:04:01;;;;;;;6.75;3.97;;;19.60;78.10;;;;;;7817635;28;20702;-90
2023/06/13 00:07:50;;;;;;;4.63;3.88;;;19.50;78.00;;;;;;7830629;28;20210;-89
2023/06/13 00:11:36;;;;;;;5.15;4.05;;;19.50;78.20;;;;;;7825703;28;20179;-89
2023/06/13 00:15:23;;;;;;;4.88;4.38;;;19.40;78.20;;;;;;7844901;28;20208;-89
2023/06/13 00:19:11;;;;;;;6.68;3.78;;;19.40;78.40;;;;;;7842301;28;20209;-90
2023/06/13 00:22:57;;;;;;;4.90;4.10;;;19.30;78.40;;;;;;7850856;28;20193;-89
2023/06/13 00:26:43;;;;;;;7.15;3.90;;;19.30;78.70;;;;;;7836856;28;20660;-89
2023/06/13 00:30:29;;;;;;;4.78;3.70;;;19.20;78.60;;;;;;7830699;28;20171;-88
2023/06/13 00:34:15;;;;;;;6.65;3.70;;;19.10;78.60;;;;;;7832191;28;20259;-89
2023/06/13 00:38:01;;;;;;;5.85;3.80;;;19.10;78.50;;;;;;7832921;28;20189;-89
2023/06/13 00:41:47;;;;;;;6.97;3.58;;;19.10;78.80;;;;;;7830378;28;20201;-89
2023/06/13 00:45:33;;;;;;;9.40;3.80;;;18.90;78.70;;;;;;7835321;28;20248;-89
2023/06/13 00:49:19;;;;;;;4.80;3.60;;;18.90;78.90;;;;;;7836707;28;20210;-88
2023/06/13 00:53:11;;;;;;;15.25;4.20;;;18.80;78.80;;;;;;7831069;28;20194;-89
2023/06/13 00:56:58;;;;;;;14.40;4.55;;;18.70;79.30;;;;;;7840271;28;20186;-89
2023/06/13 01:00:45;;;;;;;14.82;4.63;;;18.70;79.40;;;;;;7837106;28;20182;-89
2023/06/13 01:04:34;;;;;;;11.68;3.90;;;18.70;79.50;;;;;;7837567;28;20221;-89
2023/06/13 02:09:26;;;;;;;4.05;3.33;;;17.70;81.70;;;;;;7810017;28;20209;-89
2023/06/13 02:13:11;;;;;;;5.80;2.97;;;17.60;81.80;;;;;;7839108;28;20255;-88
2023/06/13 02:16:59;;;;;;;5.00;3.20;;;17.50;81.90;;;;;;7838640;28;20266;-90
2023/06/13 02:20:45;;;;;;;3.92;3.20;;;17.50;81.90;;;;;;7836694;28;20289;-88
2023/06/13 02:24:30;;;;;;;3.67;3.30;;;17.40;82.00;;;;;;7839042;28;20201;-88
2023/06/13 02:28:16;;;;;;;4.22;3.05;;;17.40;82.00;;;;;;7838710;28;20208;-88
2023/06/13 02:32:01;;;;;;;5.07;3.10;;;17.30;82.00;;;;;;7831848;28;20185;-88
2023/06/13 02:35:47;;;;;;;6.38;3.60;;;17.20;82.00;;;;;;7833780;28;20627;-88
2023/06/13 02:39:33;;;;;;;6.22;3.60;;;17.20;82.30;;;;;;7839755;28;20181;-89
2023/06/13 02:43:18;;;;;;;5.50;3.55;;;17.10;82.40;;;;;;7838015;28;20561;-89
2023/06/13 02:47:04;;;;;;;7.15;3.58;;;17.10;82.60;;;;;;7838129;28;20686;-88
2023/06/13 02:50:50;;;;;;;4.05;3.65;;;17.00;82.70;;;;;;7827286;28;20175;-88
2023/06/13 02:54:35;;;;;;;4.32;3.58;;;17.00;82.80;;;;;;7837504;28;20204;-88
2023/06/13 02:58:21;;;;;;;5.30;3.75;;;16.90;82.70;;;;;;7830365;28;20273;-88
2023/06/13 03:02:07;;;;;;;3.83;3.40;;;16.90;82.90;;;;;;7833085;28;20178;-88
2023/06/13 03:05:56;;;;;;;4.68;3.90;;;16.80;82.90;;;;;;7834665;28;20694;-88
2023/06/13 03:09:42;;;;;;;8.88;4.05;;;16.70;83.10;;;;;;7836191;28;20202;-88
2023/06/13 03:13:28;;;;;;;4.88;4.22;;;16.70;83.10;;;;;;7837234;28;20667;-88
2023/06/13 03:17:16;;;;;;;4.90;4.00;;;16.70;83.30;;;;;;7834953;28;20603;-88
2023/06/13 03:21:03;;;;;;;7.10;4.43;;;16.60;83.40;;;;;;7833784;28;20647;-88
2023/06/13 03:24:48;;;;;;;5.90;4.07;;;16.60;83.60;;;;;;7819865;28;20795;-89
2023/06/13 03:28:34;;;;;;;5.32;4.00;;;16.50;83.70;;;;;;7833392;28;20297;-88
2023/06/13 03:32:20;;;;;;;11.95;4.47;;;16.50;83.80;;;;;;7825872;28;20591;-88
2023/06/13 03:36:06;;;;;;;6.28;4.35;;;16.40;83.80;;;;;;7834904;28;20289;-88
2023/06/13 03:39:51;;;;;;;4.88;4.05;;;16.40;83.80;;;;;;7835299;28;20276;-88
2023/06/13 03:43:37;;;;;;;5.78;4.05;;;16.40;84.00;;;;;;7841138;28;20198;-88
2023/06/13 03:47:22;;;;;;;7.20;4.38;;;16.30;84.10;;;;;;7826072;28;20212;-89
2023/06/13 03:51:11;;;;;;;5.25;4.18;;;16.20;84.20;;;;;;7834913;28;20185;-88
2023/06/13 03:54:57;;;;;;;5.40;4.10;;;16.20;84.30;;;;;;7828864;28;20256;-88
2023/06/13 03:58:43;;;;;;;5.95;4.40;;;16.20;84.50;;;;;;7817041;28;20191;-88
2023/06/13 04:02:29;;;;;;;4.60;4.10;;;16.10;84.70;;;;;;7829384;28;20192;-89
2023/06/13 04:06:14;;;;;;;8.70;4.57;;;16.10;84.80;;;;;;7834974;28;20218;-90
2023/06/13 04:10:02;;;;;;;4.80;4.25;;;16.10;84.90;;;;;;7830556;28;20209;-90
2023/06/13 04:13:48;;;;;;;6.55;4.45;;;16.00;84.90;;;;;;7835249;28;20675;-88
2023/06/13 04:17:33;;;;;;;5.30;4.25;;;16.00;85.30;;;;;;7819265;28;20599;-88
2023/06/13 04:21:24;;;;;;;6.95;4.63;;;16.00;85.30;;;;;;7826987;28;20268;-89
2023/06/13 04:25:10;;;;;;;6.85;4.28;;;16.00;85.40;;;;;;7833438;28;20970;-89
2023/06/13 04:28:56;;;;;;;4.40;4.00;;;15.90;85.50;;;;;;7825641;28;20652;-89
2023/06/13 04:32:45;;;;;;;5.25;4.70;;;15.90;85.60;;;;;;7834360;28;20217;-89
2023/06/13 04:36:35;;;;;;;5.40;4.55;;;15.90;85.80;;;;;;7838193;28;20217;-89
2023/06/13 04:40:21;;;;;;;9.00;7.25;;;15.90;85.90;;;;;;7839168;28;20212;-89
2023/06/13 04:44:10;;;;;;;11.88;10.10;;;15.90;86.00;;;;;;7840165;28;20198;-90
2023/06/13 04:48:01;;;;;;;7.28;6.20;;;15.90;86.10;;;;;;7835301;28;20204;-90
2023/06/13 04:51:48;;;;;;;10.52;8.75;;;16.00;86.00;;;;;;7821482;28;20273;-88
2023/06/13 04:55:35;;;;;;;10.95;8.60;;;16.00;85.90;;;;;;7828485;28;20201;-89
2023/06/13 04:59:21;;;;;;;9.93;8.00;;;16.00;86.90;;;;;;7831221;28;20213;-90
2023/06/13 05:03:07;;;;;;;8.45;7.35;;;16.10;86.30;;;;;;7838813;28;20197;-88
2023/06/13 05:06:52;;;;;;;8.57;6.10;;;16.10;86.20;;;;;;7835483;28;20178;-89
2023/06/13 05:10:38;;;;;;;9.60;6.13;;;16.10;86.20;;;;;;7835707;28;20188;-90
2023/06/13 05:14:24;;;;;;;6.95;5.53;;;16.10;86.50;;;;;;7840918;28;20190;-88
2023/06/13 05:18:12;;;;;;;6.18;4.97;;;16.10;86.20;;;;;;7837618;28;20192;-89
2023/06/13 05:22:02;;;;;;;6.43;4.65;;;16.10;86.40;;;;;;7839325;28;20678;-89
2023/06/13 05:25:48;;;;;;;4.97;4.18;;;16.10;86.30;;;;;;7836764;28;20209;-89
2023/06/13 05:29:34;;;;;;;4.85;3.72;;;16.10;86.10;;;;;;7834439;28;20271;-88
2023/06/13 05:33:19;;;;;;;8.15;3.60;;;16.10;86.20;;;;;;7836942;28;20201;-89
2023/06/13 05:37:10;;;;;;;4.75;3.97;;;16.20;86.10;;;;;;7821858;28;20552;-89
2023/06/13 05:40:56;;;;;;;3.85;3.40;;;16.20;86.00;;;;;;7837584;28;20181;-89
2023/06/13 05:44:41;;;;;;;8.27;4.68;;;16.20;85.80;;;;;;7816410;28;20300;-89
2023/06/13 05:48:28;;;;;;;6.13;5.53;;;16.30;86.00;;;;;;7813874;28;20679;-89
2023/06/13 05:52:15;;;;;;;7.90;5.22;;;16.30;86.50;;;;;;7838704;28;20182;-89
2023/06/13 05:56:00;;;;;;;5.50;4.72;;;16.40;87.40;;;;;;7837702;28;20233;-89
2023/06/13 05:59:46;;;;;;;6.65;4.18;;;16.60;88.10;;;;;;7837689;28;20178;-88
2023/06/13 06:03:33;;;;;;;9.25;4.35;;;16.80;88.90;;;;;;7836598;28;20221;-88
2023/06/13 06:07:19;;;;;;;6.82;3.90;;;17.00;88.80;;;;;;7837366;28;20209;-89
2023/06/13 06:11:05;;;;;;;7.53;4.28;;;17.10;89.10;;;;;;7838526;28;20208;-90
2023/06/13 06:14:51;;;;;;;4.72;4.25;;;17.20;89.30;;;;;;7830630;28;20449;-89
2023/06/13 06:18:36;;;;;;;11.15;4.30;;;17.30;88.20;;;;;;7837493;28;20590;-90
2023/06/13 06:22:22;;;;;;;7.32;4.35;;;17.50;87.70;;;;;;7838825;28;20181;-89
2023/06/13 06:26:07;;;;;;;6.57;4.30;;;17.60;87.00;;;;;;7834514;28;20247;-88
2023/06/13 06:29:53;;;;;;;8.27;3.80;;;17.70;85.10;;;;;;7837272;28;20227;-89
2023/06/13 06:33:39;;;;;;;8.60;3.88;;;18.00;84.00;;;;;;7837327;28;20224;-89
2023/06/13 06:37:24;;;;;;;7.32;3.58;;;18.20;83.60;;;;;;7827766;28;20217;-87
2023/06/13 06:41:10;;;;;;;6.75;4.40;;;18.40;83.00;;;;;;7837196;28;20178;-89
2023/06/13 06:44:56;;;;;;;6.03;4.05;;;18.70;83.20;;;;;;7836656;28;20609;-89
2023/06/13 06:48:41;;;;;;;7.97;4.07;;;19.00;81.40;;;;;;7836235;28;20210;-89
2023/06/13 06:52:28;;;;;;;4.30;3.90;;;19.20;79.80;;;;;;7838267;28;20544;-90
2023/06/13 06:56:13;;;;;;;4.75;3.50;;;19.30;79.40;;;;;;7836390;28;20194;-89
2023/06/13 06:59:59;;;;;;;11.55;3.78;;;19.60;76.90;;;;;;7823043;28;20225;-90
2023/06/13 07:03:45;;;;;;;7.75;3.90;;;19.60;76.00;;;;;;7836447;28;20259;-89
2023/06/13 07:07:32;;;;;;;6.93;4.00;;;19.80;76.00;;;;;;7834605;28;20337;-90
2023/06/13 07:11:18;;;;;;;7.40;3.50;;;19.80;74.60;;;;;;7836593;28;20528;-89
2023/06/13 07:15:04;;;;;;;7.85;3.72;;;19.90;77.50;;;;;;7815832;28;20202;-89
2023/06/13 07:18:50;;;;;;;4.85;4.10;;;20.20;75.50;;;;;;7824105;28;20535;-89
2023/06/13 07:22:37;;;;;;;7.72;3.90;;;20.40;73.80;;;;;;7836569;28;20256;-90
2023/06/13 07:26:23;;;;;;;12.65;4.10;;;20.70;74.00;;;;;;7836827;28;20178;-89
2023/06/13 07:30:09;;;;;;;7.32;3.85;;;20.70;73.70;;;;;;7831525;28;20216;-89
2023/06/13 07:33:54;;;;;;;7.93;4.00;;;20.80;75.00;;;;;;7836019;28;20216;-90
2023/06/13 07:37:41;;;;;;;5.03;4.22;;;21.00;76.00;;;;;;7820073;28;20670;-89
2023/06/13 07:41:26;;;;;;;7.45;4.00;;;20.90;78.30;;;;;;7830971;28;20190;-89
2023/06/13 07:45:12;;;;;;;7.30;3.92;;;20.90;77.80;;;;;;7834608;28;20292;-89
2023/06/13 07:48:58;;;;;;;8.95;4.22;;;20.80;76.20;;;;;;7833988;28;20209;-90
2023/06/13 07:52:44;;;;;;;3.95;3.35;;;20.80;75.20;;;;;;7836408;28;20182;-89
2023/06/13 07:56:30;;;;;;;6.50;3.70;;;20.80;74.30;;;;;;7836248;28;20630;-90
2023/06/13 08:00:16;;;;;;;8.93;3.97;;;20.80;73.50;;;;;;7832228;28;20178;-89
2023/06/13 08:04:02;;;;;;;10.60;3.60;;;20.90;73.80;;;;;;7840697;28;20276;-89
2023/06/13 08:07:50;;;;;;;6.97;3.72;;;20.90;72.10;;;;;;7827522;28;20306;-89
2023/06/13 08:11:36;;;;;;;5.95;3.65;;;20.90;70.10;;;;;;7821548;28;20178;-89
2023/06/13 08:15:22;;;;;;;4.93;3.85;;;21.00;72.10;;;;;;7843258;28;20669;-90
2023/06/13 08:19:07;;;;;;;6.72;3.45;;;21.00;70.50;;;;;;7841855;28;20689;-90
2023/06/13 08:22:53;;;;;;;5.70;3.10;;;20.90;70.40;;;;;;7837577;28;20277;-89
2023/06/13 08:26:39;;;;;;;4.80;3.70;;;21.10;70.80;;;;;;7840042;28;20190;-88
2023/06/13 08:30:24;;;;;;;8.75;4.38;;;21.30;66.30;;;;;;7842086;28;20600;-90
2023/06/13 08:34:10;;;;;;;6.10;3.60;;;21.50;66.60;;;;;;7836738;28;20367;-89
2023/06/13 08:37:56;;;;;;;4.57;2.92;;;21.60;63.80;;;;;;7840586;28;20220;-89
2023/06/13 08:41:44;;;;;;;4.28;2.75;;;21.50;62.60;;;;;;7841865;28;20320;-89
2023/06/13 08:45:30;;;;;;;8.70;3.45;;;21.50;61.20;;;;;;7841050;28;20568;-89
2023/06/13 08:49:15;;;;;;;10.20;3.10;;;21.60;59.70;;;;;;7841169;28;20201;-90
2023/06/13 08:53:01;;;;;;;5.68;2.70;;;21.60;60.10;;;;;;7838447;28;20205;-90
2023/06/13 08:56:50;;;;;;;9.45;2.90;;;21.60;56.80;;;;;;7836979;28;20269;-89
2023/06/13 09:00:38;;;;;;;7.35;2.95;;;21.60;56.40;;;;;;7809001;28;20232;-89
2023/06/13 09:04:27;;;;;;;3.67;2.83;;;21.70;58.70;;;;;;7816758;28;20811;-89
2023/06/13 09:08:15;;;;;;;8.85;2.92;;;21.70;58.80;;;;;;7825257;28;20826;-89
2023/06/13 09:12:04;;;;;;;6.57;3.10;;;21.70;56.50;;;;;;7823592;28;20628;-90
2023/06/13 09:15:50;;;;;;;5.72;3.05;;;21.80;58.10;;;;;;7839429;28;20676;-90
2023/06/13 09:19:35;;;;;;;8.30;3.38;;;21.90;58.20;;;;;;7838119;28;20284;-89
2023/06/13 09:23:21;;;;;;;7.72;3.70;;;22.00;59.00;;;;;;7840109;28;20209;-89
2023/06/13 09:27:08;;;;;;;10.43;6.20;;;22.00;59.70;;;;;;7839534;28;20212;-89
2023/06/13 09:30:55;;;;;;;8.27;4.18;;;21.90;62.60;;;;;;7841711;28;20651;-90
2023/06/13 09:34:42;;;;;;;9.02;3.80;;;22.00;62.90;;;;;;7825969;28;20212;-89
2023/06/13 09:38:28;;;;;;;5.75;3.55;;;22.20;63.70;;;;;;7840307;28;20186;-89
2023/06/13 09:42:14;;;;;;;7.75;3.65;;;22.30;61.80;;;;;;7838928;28;20206;-90
2023/06/13 09:46:01;;;;;;;7.55;3.45;;;22.50;63.80;;;;;;7839489;28;20221;-89
2023/06/13 09:49:46;;;;;;;9.45;4.07;;;22.60;62.10;;;;;;7838944;28;20548;-89
2023/06/13 09:53:32;;;;;;;12.27;3.95;;;22.50;60.40;;;;;;7839107;28;20198;-90
2023/06/13 09:57:21;;;;;;;7.40;3.70;;;22.60;59.30;;;;;;7838567;28;20216;-89
2023/06/13 10:01:14;;;;;;;8.15;4.43;;;22.60;60.70;;;;;;7834722;28;20186;-90
2023/06/13 10:05:01;;;;;;;8.88;4.15;;;22.50;60.40;;;;;;7834646;28;20275;-90
2023/06/13 10:08:46;;;;;;;5.22;3.90;;;22.30;60.80;;;;;;7839918;28;20244;-90
2023/06/13 10:12:40;;;;;;;8.25;4.05;;;22.30;60.20;;;;;;7839921;28;20178;-90
2023/06/13 10:16:27;;;;;;;8.95;3.97;;;22.20;63.10;;;;;;7839715;28;20174;-90
2023/06/13 10:20:20;;;;;;;6.30;3.50;;;22.20;61.40;;;;;;7839692;28;20193;-89
2023/06/13 10:24:08;;;;;;;6.70;3.45;;;22.00;59.40;;;;;;7839147;28;20234;-90
2023/06/13 10:27:59;;;;;;;5.28;3.08;;;22.00;60.40;;;;;;7839519;28;20682;-90
2023/06/13 10:31:56;;;;;;;3.63;3.13;;;22.10;62.20;;;;;;7839334;28;20170;-90
2023/06/13 10:36:11;;;;;;;9.02;3.80;;;22.10;61.80;;;;;;7839077;28;20286;-90
2023/06/13 10:40:21;;;;;;;6.07;3.80;;;22.10;61.00;;;;;;7839099;28;20184;-90
2023/06/13 10:44:35;;;;;;;6.32;3.40;;;22.00;63.90;;;;;;7839021;28;20292;-90
2023/06/13 10:53:03;;;;;;;4.55;3.75;;;21.90;64.80;;;;;;7840362;28;20189;-91
2023/06/13 10:57:00;;;;;;;5.07;4.05;;;21.90;65.50;;;;;;7838368;28;20217;-90
2023/06/13 11:00:46;;;;;;;5.75;3.88;;;21.90;65.50;;;;;;7830104;28;20235;-90
2023/06/13 11:04:32;;;;;;;4.50;3.33;;;21.90;66.60;;;;;;7839434;28;20206;-90
2023/06/13 11:08:32;;;;;;;3.47;3.17;;;21.90;65.80;;;;;;7838146;28;20213;-90
2023/06/13 11:12:18;;;;;;;12.75;4.00;;;21.90;68.70;;;;;;7838164;28;20166;-89
2023/06/13 11:16:18;;;;;;;8.60;3.28;;;21.90;70.70;;;;;;7837854;28;20194;-91
2023/06/13 11:20:04;;;;;;;10.10;4.00;;;21.70;73.10;;;;;;7837725;28;20180;-90
2023/06/13 11:24:34;;;;;;;9.95;4.72;;;21.60;77.90;;;;;;7864792;28;20739;-89
2023/06/13 11:28:20;;;;;;;7.53;4.40;;;21.40;81.40;;;;;;7823346;28;20202;-90
2023/06/13 11:32:08;;;;;;;7.50;4.75;;;21.30;83.80;;;;;;7806944;28;20183;-90
2023/06/13 11:35:58;;;;;;;6.10;4.32;;;21.30;86.50;;;;;;7805974;28;20195;-90
2023/06/13 11:40:06;;;;;;;4.78;4.20;;;21.40;88.20;;;;;;7806886;28;20730;-90
2023/06/13 11:44:02;;;;;;;6.60;4.28;;;21.60;84.20;;;;;;7806600;28;20583;-88
2023/06/13 11:47:57;;;;;;;10.32;4.03;;;21.70;81.60;;;;;;7807027;28;20202;-91
2023/06/13 11:51:44;;;;;;;5.57;4.10;;;21.80;80.60;;;;;;7806453;28;20177;-90
2023/06/13 11:55:29;;;;;;;4.68;3.83;;;22.00;78.40;;;;;;7806398;28;20699;-90
2023/06/13 11:59:23;;;;;;;7.22;4.45;;;22.20;76.00;;;;;;7806280;28;20656;-90
2023/06/13 12:03:08;;;;;;;11.25;4.18;;;22.30;73.20;;;;;;7806284;28;20313;-90
2023/06/13 12:06:55;;;;;;;5.80;3.42;;;22.40;75.80;;;;;;7806920;28;20273;-90
2023/06/13 12:10:41;;;;;;;6.30;4.05;;;22.70;79.20;;;;;;7807569;28;20632;-90
2023/06/13 12:14:28;;;;;;;4.88;4.22;;;22.70;78.90;;;;;;7822803;28;20588;-90
2023/06/13 12:18:14;;;;;;;7.32;3.70;;;22.70;78.90;;;;;;7806412;28;20183;-90
2023/06/13 12:22:00;;;;;;;4.93;4.22;;;22.70;79.10;;;;;;7806686;28;20181;-90
2023/06/13 12:25:46;;;;;;;4.97;3.58;;;22.60;77.40;;;;;;7806038;28;20693;-91
2023/06/13 12:29:34;;;;;;;3.95;3.35;;;22.50;77.20;;;;;;7805962;28;20734;-90
2023/06/13 12:33:33;;;;;;;7.95;3.28;;;22.50;76.90;;;;;;7805890;28;20244;-90
2023/06/13 12:37:19;;;;;;;4.03;3.38;;;22.70;76.80;;;;;;7806215;28;20186;-90
2023/06/13 12:41:14;;;;;;;5.85;3.60;;;22.70;75.20;;;;;;7805991;28;20189;-90
2023/06/13 12:45:00;;;;;;;7.50;3.65;;;22.70;77.40;;;;;;7805906;28;20856;-91
2023/06/13 12:48:46;;;;;;;4.93;3.28;;;22.70;77.40;;;;;;7808568;28;20571;-92
2023/06/13 12:52:32;;;;;;;5.88;3.85;;;22.80;77.00;;;;;;7811297;28;20179;-90
2023/06/13 12:56:18;;;;;;;4.45;3.70;;;22.80;76.20;;;;;;7811074;28;20199;-90
2023/06/13 13:00:10;;;;;;;5.15;3.80;;;22.80;75.80;;;;;;7811255;28;20183;-89
2023/06/13 13:03:55;;;;;;;5.72;3.50;;;22.80;75.10;;;;;;7810867;28;20242;-89
2023/06/13 13:07:41;;;;;;;6.20;3.55;;;22.80;76.70;;;;;;7811404;28;20202;-88
2023/06/13 13:11:27;;;;;;;5.43;3.70;;;22.90;73.70;;;;;;7811001;28;20317;-88
2023/06/13 13:15:12;;;;;;;5.15;3.85;;;23.00;74.60;;;;;;7810652;28;20202;-89
2023/06/13 13:18:58;;;;;;;4.85;4.07;;;23.00;73.70;;;;;;7810541;28;20252;-90
2023/06/13 13:22:44;;;;;;;3.85;3.45;;;23.00;72.50;;;;;;7811519;28;20186;-91
2023/06/13 13:26:30;;;;;;;5.07;4.03;;;22.90;72.40;;;;;;7810413;28;20205;-90
2023/06/13 13:30:17;;;;;;;6.13;4.03;;;22.90;71.40;;;;;;7810142;28;20202;-91
2023/06/13 13:34:03;;;;;;;4.95;3.92;;;22.90;70.20;;;;;;7810058;28;20564;-89
2023/06/13 13:38:21;;;;;;;7.75;4.13;;;22.90;71.20;;;;;;7810040;28;20220;-89
2023/06/13 13:42:07;;;;;;;7.43;4.10;;;23.00;68.80;;;;;;7809937;28;20696;-88
2023/06/13 13:46:05;;;;;;;7.80;4.50;;;23.00;69.80;;;;;;7809679;28;20249;-88
2023/06/13 13:49:50;;;;;;;7.22;4.00;;;22.90;70.10;;;;;;7810325;28;20255;-88
2023/06/13 13:53:36;;;;;;;5.65;3.72;;;22.90;70.20;;;;;;7810328;28;20237;-89
2023/06/13 13:57:22;;;;;;;7.32;3.40;;;22.90;70.00;;;;;;7809755;28;20186;-90
2023/06/13 14:01:25;;;;;;;7.30;3.47;;;22.90;69.70;;;;;;7810510;28;20178;-90
2023/06/13 14:05:10;;;;;;;4.13;3.70;;;22.90;69.40;;;;;;7809114;28;20329;-89
2023/06/13 14:08:56;;;;;;;13.18;4.47;;;23.00;70.20;;;;;;7809267;28;20298;-90
2023/06/13 14:12:43;;;;;;;17.55;5.10;;;23.10;69.50;;;;;;7810001;28;20307;-89
2023/06/13 14:16:29;;;;;;;6.00;3.85;;;23.20;67.00;;;;;;7809114;28;20273;-90
2023/06/13 14:20:16;;;;;;;13.60;4.68;;;23.20;66.80;;;;;;7808824;28;20636;-89
2023/06/13 14:24:01;;;;;;;11.32;4.78;;;23.10;64.30;;;;;;7812125;28;20198;-90
2023/06/13 14:27:47;;;;;;;18.38;4.35;;;23.00;63.50;;;;;;7816743;28;20202;-89
2023/06/13 14:31:33;;;;;;;17.27;5.07;;;23.00;63.90;;;;;;7820548;28;20162;-89
2023/06/13 14:35:18;;;;;;;10.45;5.38;;;22.90;63.40;;;;;;7809363;28;20256;-89
2023/06/13 14:39:05;;;;;;;7.65;4.20;;;22.80;63.80;;;;;;7808650;28;20273;-90
2023/06/13 14:42:51;;;;;;;9.63;4.60;;;22.90;64.80;;;;;;7808406;28;20181;-90
2023/06/13 14:46:36;;;;;;;7.95;4.55;;;22.90;63.70;;;;;;7808631;28;20632;-91
2023/06/13 14:50:22;;;;;;;6.90;4.53;;;23.00;64.30;;;;;;7808172;28;20210;-89
2023/06/13 14:54:08;;;;;;;13.23;4.75;;;23.00;62.80;;;;;;7807885;28;20194;-90
2023/06/13 14:57:55;;;;;;;6.70;4.55;;;23.00;64.00;;;;;;7808371;28;20178;-89
2023/06/13 15:01:40;;;;;;;9.43;5.65;;;22.90;63.30;;;;;;7808312;28;20214;-89
2023/06/13 15:05:26;;;;;;;6.45;4.47;;;22.90;63.80;;;;;;7807876;28;20898;-89
2023/06/13 15:09:12;;;;;;;8.63;4.88;;;22.90;63.40;;;;;;7807859;28;20209;-89
2023/06/13 15:12:57;;;;;;;10.32;5.38;;;22.90;64.80;;;;;;7806327;28;20183;-89
2023/06/13 15:16:43;;;;;;;9.63;4.88;;;22.90;64.50;;;;;;7807801;28;20181;-90
2023/06/13 15:20:30;;;;;;;9.77;5.00;;;22.80;64.30;;;;;;7807569;28;20183;-90
2023/06/13 15:24:16;;;;;;;4.80;4.07;;;22.90;64.60;;;;;;7807171;28;20249;-90
2023/06/13 15:28:02;;;;;;;6.63;4.93;;;22.90;63.70;;;;;;7807458;28;20707;-90
2023/06/13 15:31:48;;;;;;;5.38;4.63;;;23.00;64.00;;;;;;7807366;28;20645;-90
2023/06/13 15:35:33;;;;;;;5.55;4.28;;;22.90;64.50;;;;;;7806882;28;20205;-90
2023/06/13 15:39:19;;;;;;;12.43;4.97;;;23.00;64.00;;;;;;7806798;28;20197;-90
2023/06/13 15:43:05;;;;;;;9.15;4.40;;;23.00;63.00;;;;;;7806799;28;20773;-90
2023/06/13 15:46:51;;;;;;;10.45;4.20;;;22.90;63.30;;;;;;7809059;28;20264;-89
2023/06/13 15:50:41;;;;;;;11.63;4.65;;;22.90;64.00;;;;;;7837702;28;20567;-91
2023/06/13 15:54:27;;;;;;;8.15;4.85;;;22.90;64.20;;;;;;7839812;28;20208;-90
2023/06/13 15:58:12;;;;;;;6.45;4.95;;;22.80;64.60;;;;;;7840713;28;20220;-91
2023/06/13 16:01:58;;;;;;;6.65;4.50;;;22.80;65.10;;;;;;7838138;28;20269;-90
2023/06/13 16:05:44;;;;;;;6.47;4.97;;;22.80;65.60;;;;;;7837688;28;20687;-90
2023/06/13 16:09:51;;;;;;;11.40;5.10;;;22.70;65.20;;;;;;7835384;28;20431;-89
2023/06/13 16:13:37;;;;;;;6.78;4.30;;;22.90;64.90;;;;;;7837112;28;20201;-89
2023/06/13 16:17:30;;;;;;;7.40;4.20;;;22.70;65.70;;;;;;7836548;28;20193;-90
2023/06/13 16:21:16;;;;;;;5.43;4.50;;;22.70;66.40;;;;;;7836941;28;20178;-88
2023/06/13 16:25:15;;;;;;;6.38;4.22;;;22.70;65.90;;;;;;7841965;28;20332;-90
2023/06/13 16:29:00;;;;;;;7.00;4.50;;;22.60;65.30;;;;;;7842442;28;20208;-88
2023/06/13 16:32:46;;;;;;;6.78;3.95;;;22.60;65.70;;;;;;7842550;28;20178;-89
2023/06/13 16:36:32;;;;;;;5.10;3.60;;;22.70;65.40;;;;;;7831662;28;20189;-89
2023/06/13 16:40:18;;;;;;;10.85;4.18;;;22.70;66.10;;;;;;7842476;28;20178;-89
2023/06/13 16:44:03;;;;;;;6.15;3.78;;;22.70;65.50;;;;;;7814410;28;20210;-90
2023/06/13 16:47:50;;;;;;;10.52;4.20;;;22.60;65.50;;;;;;7811420;28;20206;-89
2023/06/13 16:51:36;;;;;;;5.32;3.78;;;22.60;66.10;;;;;;7811857;28;20179;-90
2023/06/13 16:55:23;;;;;;;9.85;4.35;;;22.60;66.40;;;;;;7842581;28;20213;-90
2023/06/13 16:59:24;;;;;;;6.30;4.35;;;22.60;66.40;;;;;;7842187;28;20555;-89
2023/06/13 17:03:10;;;;;;;6.03;4.40;;;22.60;67.90;;;;;;7824066;28;20202;-89
2023/06/13 17:06:55;;;;;;;6.35;3.97;;;22.60;67.20;;;;;;7842279;28;20190;-90
2023/06/13 17:10:41;;;;;;;7.25;3.88;;;22.60;67.00;;;;;;7841809;28;20204;-91
2023/06/13 17:14:47;;;;;;;5.38;3.70;;;22.60;67.10;;;;;;7842971;28;20194;-91
2023/06/13 17:18:55;;;;;;;5.47;3.28;;;22.50;66.50;;;;;;7841828;28;20241;-91
2023/06/13 17:22:45;;;;;;;5.00;3.58;;;22.50;66.10;;;;;;7841762;28;20174;-89
2023/06/13 17:26:41;;;;;;;4.32;3.55;;;22.50;66.40;;;;;;7842876;28;20188;-89
2023/06/13 17:30:26;;;;;;;5.18;3.53;;;22.40;66.70;;;;;;7842393;28;20304;-90
2023/06/13 17:34:12;;;;;;;9.02;3.65;;;22.40;66.60;;;;;;7840264;28;20798;-89
2023/06/13 17:37:58;;;;;;;8.40;3.65;;;22.40;67.60;;;;;;7841385;28;20181;-90
2023/06/13 17:41:49;;;;;;;7.35;3.55;;;22.30;67.80;;;;;;7841217;28;20182;-89
2023/06/13 17:45:46;;;;;;;8.10;2.92;;;22.20;68.10;;;;;;7841227;28;20202;-90
2023/06/13 17:49:40;;;;;;;5.55;3.17;;;22.00;68.00;;;;;;7840936;28;20202;-90
2023/06/13 17:53:26;;;;;;;4.03;2.88;;;22.00;68.00;;;;;;7840540;28;20193;-89
2023/06/13 17:57:13;;;;;;;2.38;2.17;;;21.90;69.50;;;;;;7835798;28;20206;-89
2023/06/13 18:01:26;;;;;;;7.85;3.20;;;21.80;70.20;;;;;;7809505;28;20174;-90
2023/06/13 18:05:11;;;;;;;8.48;2.80;;;21.90;70.50;;;;;;7822467;28;20216;-90
2023/06/13 18:08:58;;;;;;;3.03;2.30;;;21.90;71.00;;;;;;7839884;28;20198;-89
2023/06/13 18:12:59;;;;;;;4.68;3.20;;;21.90;71.10;;;;;;7839711;28;20682;-89
2023/06/13 18:17:13;;;;;;;3.28;2.92;;;21.90;71.70;;;;;;7840145;28;20209;-89
2023/06/13 18:20:59;;;;;;;6.88;2.85;;;21.90;72.00;;;;;;7840108;28;20568;-90
2023/06/13 18:25:08;;;;;;;3.47;3.00;;;21.90;72.50;;;;;;7839519;28;20201;-89
2023/06/13 18:28:53;;;;;;;5.93;3.00;;;21.80;72.80;;;;;;7839363;28;20683;-89
2023/06/13 18:32:39;;;;;;;7.28;2.70;;;21.80;72.60;;;;;;7839266;28;20204;-90
2023/06/13 18:36:26;;;;;;;6.93;3.15;;;21.70;73.20;;;;;;7839312;28;20197;-89
2023/06/13 18:40:12;;;;;;;4.32;3.10;;;21.70;72.80;;;;;;7840049;28;20174;-89
2023/06/13 18:44:05;;;;;;;3.00;2.65;;;21.60;73.30;;;;;;7839108;28;20236;-90
2023/06/13 18:47:53;;;;;;;4.18;2.95;;;21.60;73.60;;;;;;7839137;28;20228;-90
2023/06/13 18:51:38;;;;;;;5.30;3.00;;;21.60;73.80;;;;;;7839399;28;20208;-90
2023/06/13 18:55:25;;;;;;;3.70;2.97;;;21.60;74.10;;;;;;7837954;28;20198;-90
2023/06/13 18:59:18;;;;;;;3.65;3.13;;;21.60;73.70;;;;;;7837241;28;20186;-90
2023/06/13 19:03:09;;;;;;;4.03;2.83;;;21.60;73.80;;;;;;7824384;28;20206;-89
2023/06/13 19:06:55;;;;;;;6.32;2.97;;;21.50;74.10;;;;;;7830687;28;20197;-89
2023/06/13 19:10:40;;;;;;;4.10;2.80;;;21.50;74.40;;;;;;7838083;28;20201;-90
2023/06/13 19:14:26;;;;;;;3.35;2.85;;;21.50;75.50;;;;;;7837994;28;20205;-88
2023/06/13 19:18:13;;;;;;;5.47;2.60;;;21.40;74.80;;;;;;7837424;28;20216;-89
2023/06/13 19:21:59;;;;;;;5.53;2.95;;;21.40;75.00;;;;;;7837566;28;20190;-90
2023/06/13 19:25:44;;;;;;;3.38;2.65;;;21.20;75.40;;;;;;7839631;28;20667;-90
2023/06/13 19:29:30;;;;;;;4.63;2.92;;;21.30;75.40;;;;;;7825424;28;20637;-90
2023/06/13 19:33:16;;;;;;;5.30;2.70;;;21.20;75.70;;;;;;7837971;28;20216;-89
2023/06/13 19:37:03;;;;;;;4.50;2.58;;;21.20;76.00;;;;;;7856731;28;20181;-90
2023/06/13 19:40:49;;;;;;;3.58;3.03;;;21.10;76.20;;;;;;7841017;28;20182;-89
2023/06/13 19:44:36;;;;;;;5.43;2.90;;;21.10;76.40;;;;;;7837937;28;20259;-89
2023/06/13 19:48:21;;;;;;;4.32;3.17;;;21.10;76.50;;;;;;7833132;28;20705;-89
2023/06/13 19:52:07;;;;;;;3.50;2.63;;;21.00;76.60;;;;;;7830755;28;20791;-88
2023/06/13 19:55:54;;;;;;;4.05;3.20;;;21.00;77.00;;;;;;7835182;28;20244;-88
2023/06/13 19:59:40;;;;;;;3.70;3.10;;;20.90;77.00;;;;;;7842046;28;20182;-90
2023/06/13 20:03:27;;;;;;;4.82;2.97;;;20.90;77.20;;;;;;7843436;28;20235;-88
2023/06/13 20:07:13;;;;;;;3.22;2.78;;;20.80;77.50;;;;;;7844690;28;20174;-89
2023/06/13 20:11:01;;;;;;;5.10;3.20;;;20.80;77.80;;;;;;7850134;28;20185;-88
2023/06/13 20:14:50;;;;;;;4.78;2.60;;;20.80;78.00;;;;;;7879809;28;21225;-91
2023/06/13 20:18:41;;;;;;;3.90;2.97;;;20.70;78.20;;;;;;7836816;28;20563;-89
2023/06/13 20:22:28;;;;;;;3.45;2.78;;;20.70;78.20;;;;;;7834588;28;20182;-89
2023/06/13 20:26:14;;;;;;;5.40;2.70;;;20.60;78.20;;;;;;7842254;28;20283;-89
2023/06/13 20:30:00;;;;;;;3.10;2.72;;;20.60;78.50;;;;;;7841644;28;20207;-89
2023/06/13 20:33:46;;;;;;;4.68;2.90;;;20.60;78.60;;;;;;7841170;28;20870;-89
2023/06/13 20:37:31;;;;;;;5.40;2.72;;;20.50;78.30;;;;;;7830505;28;20193;-89
2023/06/13 20:41:17;;;;;;;4.50;2.90;;;20.50;78.50;;;;;;7841187;28;20178;-89
2023/06/13 20:45:07;;;;;;;4.72;2.88;;;20.50;78.50;;;;;;7841707;28;20202;-89
2023/06/13 20:48:55;;;;;;;4.55;2.92;;;20.40;78.40;;;;;;7835989;28;20410;-89